Graham, Mississippi
Current Conditions -  °F | °C
As of 1:53 AM on Friday 28 Nov 2014 (Local Time) from KTUP Reporting Station
Clear Clear  
Wind Chill: 28°   Ceiling: Unl
Heat Index: 28°   Visibility: 10mi
Dew Point: 25°   Wind: 0mph
Humidity: 88%   Direction: NA
Pressure: 30.46"   Gusts: NA
Location:  34.5357°N, 88.6348°W
Report Text: KTUP 280753Z AUTO 00000KT 10SM CLR M02/M04 A3046 RMK AO2 SLP317 T10221039 $
Loading
Personal Weather Stations






























Interactive Weather Map New forecast layout! Learn more

10-Day Weather Forecast

Advertisements
Track Severe Weather on mobile